ESSAESSP

Guest
Details From ESSA - Stockholm Arlanda
To ESSP - Norrkoping Kungsangen
Flight Number -
Tags generated
Created
Modified
Stats Distance 83 nm / 154 km
Max Altitude 9,400 ft / 2,865 m
Waypoints 3
Social Downloads 2
Likes 0
Share VATSIM

Download

Looking for another format? Having issues loading an existing format? Contact us
Advertisement - Login to hide

Notes

Basic altitude profile: - Ascent Rate: 1600ft/min - Ascent Speed: 230kts - Cruise Altitude: 5000ft - Cruise Speed: 300kts - Descent Rate: 1500ft/min - Descent Speed: 230kts Options: - Use NATs: yes - Use PACOTS: yes - Use low airways: yes - Use high airways: yes

Route

ESSA DKR ESSP

ID Type Via Altitude Latitude Longitude Leg Dist Tot Dist Heading (true) Name
O ESSA APT - 0 ft / 0 m 59.65014˚ 17.94363˚ - 0 nm - Stockholm Arlanda
DKR VOR - 9,400 ft / 2,865 m 59.20717˚ 17.01208˚ 38 nm 38 nm 227° / 227° DUNKER VOR
O ESSP APT - 0 ft / 0 m 58.58749˚ 16.24560˚ 44 nm 83 nm 213° / 212° Norrkoping Kungsangen

Altitude Profile

Advertisement - Login to hide

ESSA

Details ICAO ESSA (ARN)
Name Stockholm Arlanda
Region Sweden
Timezone Europe/Stockholm (UTC+2.0)
Stats Elevation 137 ft / 42 m (AMSL)
Location 59.650140° 17.943628°
Runways 3
Magnetic Variation 6.171° E

METAR

ESSA 221420Z 15005KT 080V180 CAVOK 22/04 Q1018 NOSIG

Decode

TAF

TAF ESSA 221130Z 2212/2312 18006KT CAVOK

Decode

Departure Runways

ID Width Length Bearing (true) Bearing (mag) Surface Threshold Offset Overrun Length
01L 148 ft / 45 m 10,812 ft / 3,296 m 10.35° 4.18° Concrete 0 ft / 0 m 0 ft / 0 m
01R 148 ft / 45 m 8,188 ft / 2,496 m 10.38° 4.21° Asphalt 0 ft / 0 m 0 ft / 0 m
08 148 ft / 45 m 8,178 ft / 2,493 m 75.83° 69.66° Concrete 0 ft / 0 m 0 ft / 0 m
19L 148 ft / 45 m 8,188 ft / 2,496 m 190.39° 184.22° Asphalt 0 ft / 0 m 0 ft / 0 m
19R 148 ft / 45 m 10,812 ft / 3,296 m 190.36° 184.19° Concrete 0 ft / 0 m 0 ft / 0 m
26 148 ft / 45 m 8,178 ft / 2,493 m 255.87° 249.70° Concrete 0 ft / 0 m 0 ft / 0 m

ESSP

Details ICAO ESSP (NRK)
Name Norrkoping Kungsangen
Region Sweden
Timezone Europe/Stockholm (UTC+2.0)
Stats Elevation 32 ft / 10 m (AMSL)
Location 58.587486° 16.245601°
Runways 2
Magnetic Variation 5.357° E

METAR

ESSP 221420Z 12008KT 080V140 CAVOK 23/04 Q1018

Decode

TAF

Not found

Destination Runways

ID Width Length Bearing (true) Bearing (mag) Surface Threshold Offset Overrun Length
09 148 ft / 45 m 7,203 ft / 2,195 m 90.85° 85.49° Asphalt 0 ft / 0 m 0 ft / 0 m
11 115 ft / 35 m 1,942 ft / 592 m 115.74° 110.38° Grass 0 ft / 0 m 0 ft / 0 m
27 148 ft / 45 m 7,203 ft / 2,195 m 270.89° 265.53° Asphalt 0 ft / 0 m 200 ft / 61 m
29 115 ft / 35 m 1,942 ft / 592 m 295.74° 290.38° Grass 0 ft / 0 m 0 ft / 0 m

Approach Navaids

Runway Type Ident Frequency Range Bearing (true) Bearing (mag) Slope Elevation
27 Localiser SP 109.50 MHz 18 nm / 33 km 270.83° 265.47° - 32 ft / 10 m (AMSL)
27 Glidescope SP 109.50 MHz 10 nm / 19 km 270.87° 265.51° 3.00° 32 ft / 10 m (AMSL)

Popular Alternatives